Language: 


Des rapports , des résumés tant et plus, au choix de chacun....


Données statistiques de la station
Quotidien Rapport Mars 26, 2017 Unités:  Anglais    Métrique   les deux
« Précédent Jour
Suivant Jour »
Quotidien Hebdomadaire Mensuel Annuel Actuel
  Haut: Bas: Moyen:
Température: 64.9 °F 41.4 °F 52.2 °F
Pt de rosée: 42.8 °F 30.4 °F 37.9 °F
Humidité: 82 % 40 % 60 %
Vitesse du vent: 13 mph 0 mph 7.2 mph
Rafales: 16.6 mph - -
Vent:- - ENE
Pression: 30.2 in 30.1 in -
Précipitation: 0 in    
Historical Graphs
 
 
Données statistiques pour Mars 26, 2017
Heure Température Point de rosée Pression Vent Vitesse du vent Refales Humidité Pluie (taux horaire)
00:02 46.9 °F 30.4 °F 30.2 in NE 8.1 mph 11.9 mph 52 % 0 in
00:07 47.1 °F 30.4 °F 30.2 in ENE 8.7 mph 11.9 mph 52 % 0 in
00:12 47.1 °F 30.4 °F 30.2 in NE 8.5 mph 13.2 mph 52 % 0 in
00:17 47.1 °F 30.4 °F 30.2 in North 13 mph 15.9 mph 52 % 0 in
00:22 47.1 °F 30.4 °F 30.2 in ENE 10.1 mph 16.6 mph 52 % 0 in
00:27 46.9 °F 30.4 °F 30.2 in NE 12.3 mph 16.6 mph 52 % 0 in
00:32 46.9 °F 30.7 °F 30.2 in NE 8.7 mph 15.4 mph 53 % 0 in
00:37 46.8 °F 30.6 °F 30.2 in ENE 8.7 mph 15.4 mph 53 % 0 in
00:42 46.6 °F 30.4 °F 30.2 in NE 8.5 mph 13.2 mph 53 % 0 in
00:47 46.6 °F 30.7 °F 30.2 in ENE 6.3 mph 12.1 mph 54 % 0 in
00:52 46.2 °F 30.6 °F 30.2 in ENE 7.4 mph 9.4 mph 54 % 0 in
00:57 46 °F 30.4 °F 30.2 in NE 7.6 mph 9.2 mph 54 % 0 in
01:02 45.9 °F 30.7 °F 30.2 in NE 6.5 mph 10.3 mph 55 % 0 in
01:07 45.9 °F 31.1 °F 30.2 in ENE 7.6 mph 10.3 mph 56 % 0 in
01:12 45.9 °F 30.9 °F 30.2 in NE 7.8 mph 9.8 mph 56 % 0 in
01:17 45.9 °F 31.5 °F 30.2 in ENE 8.5 mph 9.8 mph 57 % 0 in
01:22 45.7 °F 31.3 °F 30.2 in NE 6.7 mph 9.6 mph 57 % 0 in
01:27 45.7 °F 31.3 °F 30.2 in NE 6 mph 8.5 mph 57 % 0 in
01:32 45.1 °F 30.9 °F 30.2 in NE 5.6 mph 8.7 mph 57 % 0 in
01:37 45.1 °F 31.1 °F 30.2 in NE 7.4 mph 10.3 mph 58 % 0 in
01:42 45 °F 31.5 °F 30.2 in NE 7.8 mph 10.3 mph 59 % 0 in
01:47 45 °F 31.8 °F 30.2 in NE 8.7 mph 10.1 mph 60 % 0 in
01:52 45 °F 31.8 °F 30.2 in NE 7.6 mph 10.5 mph 60 % 0 in
01:57 45 °F 31.8 °F 30.2 in NE 8.5 mph 10.5 mph 60 % 0 in
03:02 44.8 °F 31.6 °F 30.2 in NE 7.4 mph 8.5 mph 60 % 0 in
03:07 44.8 °F 32.2 °F 30.2 in NE 10.1 mph 10.5 mph 61 % 0 in
03:12 44.4 °F 31.5 °F 30.2 in NE 8.7 mph 10.7 mph 60 % 0 in
03:17 44.4 °F 31.5 °F 30.2 in NE 8.7 mph 11 mph 60 % 0 in
03:22 44.2 °F 31.3 °F 30.2 in NE 9.8 mph 11 mph 60 % 0 in
03:27 44.1 °F 31.5 °F 30.2 in NE 8.7 mph 10.3 mph 61 % 0 in
03:32 43.9 °F 31.6 °F 30.2 in NNE 9.6 mph 10.3 mph 62 % 0 in
03:37 43.5 °F 31.8 °F 30.2 in NE 7.8 mph 10.1 mph 63 % 0 in
03:42 43.5 °F 31.6 °F 30.2 in NE 8.7 mph 9.6 mph 63 % 0 in
03:47 43.5 °F 32.2 °F 30.2 in ENE 7.6 mph 10.7 mph 64 % 0 in
03:52 43.3 °F 31.8 °F 30.2 in ENE 7.8 mph 10.7 mph 64 % 0 in
03:57 43.3 °F 32.4 °F 30.2 in NE 7.8 mph 9.8 mph 65 % 0 in
04:02 43.3 °F 32.4 °F 30.2 in NE 10.1 mph 10.1 mph 65 % 0 in
04:07 43.2 °F 32.2 °F 30.2 in NE 7.8 mph 10.1 mph 65 % 0 in
04:12 43.2 °F 32.5 °F 30.2 in NE 7.4 mph 10.1 mph 66 % 0 in
04:17 43.2 °F 32.5 °F 30.2 in ENE 8.5 mph 9.8 mph 66 % 0 in
04:18 43.2 °F 32.5 °F 30.2 in NE 7.8 mph 9.8 mph 66 % 0 in
04:23 43.2 °F 32.5 °F 30.2 in ENE 6 mph 9.8 mph 66 % 0 in
04:28 43 °F 32.4 °F 30.2 in NE 8.1 mph 10.1 mph 66 % 0 in
04:33 43 °F 32.7 °F 30.2 in NE 8.5 mph 10.1 mph 67 % 0 in
04:38 43.2 °F 32.9 °F 30.2 in NE 7.6 mph 9.6 mph 67 % 0 in
04:43 43 °F 32.7 °F 30.2 in NE 7.4 mph 9.6 mph 67 % 0 in
04:48 43 °F 32.7 °F 30.2 in NE 8.7 mph 8.7 mph 67 % 0 in
04:53 43 °F 32.7 °F 30.2 in NE 7.6 mph 8.7 mph 67 % 0 in
04:58 42.8 °F 32.5 °F 30.2 in NE 6.5 mph 8.7 mph 67 % 0 in
05:03 42.8 °F 32.5 °F 30.2 in NE 6.5 mph 8.7 mph 67 % 0 in
05:08 42.6 °F 32.7 °F 30.1 in NE 8.7 mph 8.7 mph 68 % 0 in
05:13 42.6 °F 32.7 °F 30.1 in NE 8.1 mph 10.5 mph 68 % 0 in
05:18 42.6 °F 32.7 °F 30.1 in NE 7.8 mph 10.7 mph 68 % 0 in
05:23 42.8 °F 33.3 °F 30.2 in NE 6.5 mph 10.7 mph 69 % 0 in
05:28 42.6 °F 33.1 °F 30.2 in NE 9.8 mph 9.8 mph 69 % 0 in
05:33 42.8 °F 33.3 °F 30.2 in NE 10.5 mph 10.5 mph 69 % 0 in
05:38 42.8 °F 33.3 °F 30.1 in NE 8.5 mph 10.5 mph 69 % 0 in
05:43 42.8 °F 33.6 °F 30.1 in NE 7.8 mph 10.5 mph 70 % 0 in
05:48 42.8 °F 33.6 °F 30.1 in NE 6.5 mph 10.5 mph 70 % 0 in
05:53 42.6 °F 33.4 °F 30.2 in ENE 6.5 mph 8.9 mph 70 % 0 in
05:58 42.4 °F 34 °F 30.2 in ENE 8.1 mph 9.6 mph 72 % 0 in
06:03 42.4 °F 34 °F 30.2 in NE 7.6 mph 9.6 mph 72 % 0 in
06:08 42.4 °F 34.3 °F 30.2 in NE 7.4 mph 10.1 mph 73 % 0 in
06:13 42.3 °F 34.2 °F 30.2 in ENE 7.6 mph 10.1 mph 73 % 0 in
06:18 42.3 °F 34.2 °F 30.2 in NE 8.1 mph 8.5 mph 73 % 0 in
06:23 42.3 °F 34.5 °F 30.2 in NE 6.5 mph 8.7 mph 74 % 0 in
06:28 42.3 °F 34.5 °F 30.2 in NE 8.5 mph 10.7 mph 74 % 0 in
06:33 42.3 °F 34.9 °F 30.2 in NE 9.6 mph 11 mph 75 % 0 in
06:38 42.4 °F 35.1 °F 30.2 in NE 7.8 mph 11 mph 75 % 0 in
06:43 42.3 °F 34.9 °F 30.2 in ENE 10.1 mph 11 mph 75 % 0 in
06:48 42.3 °F 34.9 °F 30.2 in NE 8.5 mph 10.5 mph 75 % 0 in
06:53 42.3 °F 34.9 °F 30.2 in NE 5.6 mph 10.5 mph 75 % 0 in
06:58 42.1 °F 34.7 °F 30.2 in NE 4.9 mph 8.5 mph 75 % 0 in
07:03 41.9 °F 34.5 °F 30.2 in NE 4.7 mph 8.5 mph 75 % 0 in
07:08 41.5 °F 34.2 °F 30.2 in ENE 8.1 mph 8.1 mph 75 % 0 in
07:13 41.5 °F 34.5 °F 30.2 in ENE 7.2 mph 8.1 mph 76 % 0 in
07:18 41.5 °F 34.9 °F 30.2 in ENE 6.5 mph 8.1 mph 77 % 0 in
07:23 41.4 °F 34.7 °F 30.2 in NE 5.8 mph 7.8 mph 77 % 0 in
07:29 41.5 °F 35.2 °F 30.2 in ENE 5.8 mph 7.8 mph 78 % 0 in
07:34 41.5 °F 35.2 °F 30.2 in NE 4.9 mph 7.8 mph 78 % 0 in
07:39 41.4 °F 35.1 °F 30.2 in NE 6.3 mph 8.7 mph 78 % 0 in
07:44 41.5 °F 35.4 °F 30.2 in NE 7.6 mph 8.7 mph 79 % 0 in
07:49 41.5 °F 35.8 °F 30.2 in ENE 5.4 mph 8.5 mph 80 % 0 in
07:54 41.5 °F 35.8 °F 30.2 in ENE 8.9 mph 8.9 mph 80 % 0 in
07:59 41.9 °F 36.5 °F 30.2 in ENE 8.1 mph 8.9 mph 81 % 0 in
08:04 42.1 °F 37 °F 30.2 in ENE 6.5 mph 10.5 mph 82 % 0 in
08:09 42.3 °F 37 °F 30.2 in ENE 7.2 mph 10.5 mph 82 % 0 in
08:14 42.4 °F 37.2 °F 30.2 in NE 5.6 mph 8.7 mph 82 % 0 in
08:19 42.8 °F 37.6 °F 30.2 in ENE 6.3 mph 8.5 mph 82 % 0 in
08:24 43.2 °F 37.9 °F 30.2 in ENE 7.8 mph 8.7 mph 82 % 0 in
08:29 43.5 °F 38.3 °F 30.2 in NE 6.9 mph 10.1 mph 82 % 0 in
08:34 44.2 °F 38.8 °F 30.2 in East 6.3 mph 10.1 mph 81 % 0 in
08:39 45 °F 39 °F 30.2 in ENE 7.6 mph 10.3 mph 80 % 0 in
08:44 45.1 °F 39 °F 30.2 in East 5.8 mph 10.3 mph 79 % 0 in
08:49 45.9 °F 39.4 °F 30.2 in ENE 6 mph 9.8 mph 78 % 0 in
08:54 46 °F 39 °F 30.2 in NE 6.3 mph 8.7 mph 76 % 0 in
08:59 46.6 °F 39.4 °F 30.2 in NE 5.8 mph 8.7 mph 76 % 0 in
09:04 46.9 °F 39.6 °F 30.2 in NE 6.5 mph 9.2 mph 75 % 0 in
09:09 47.3 °F 39.6 °F 30.2 in NE 5.8 mph 11 mph 74 % 0 in
09:14 47.7 °F 39.7 °F 30.2 in ENE 4.9 mph 11 mph 74 % 0 in
09:19 47.8 °F 39.4 °F 30.2 in North 6.3 mph 11 mph 72 % 0 in
09:24 48.4 °F 39.7 °F 30.2 in East 5.4 mph 10.7 mph 72 % 0 in
09:29 48.7 °F 39.7 °F 30.2 in East 9.6 mph 11 mph 71 % 0 in
09:34 48.9 °F 39.6 °F 30.2 in NE 6 mph 11 mph 70 % 0 in
09:39 49.3 °F 39.6 °F 30.2 in ENE 7.2 mph 11 mph 69 % 0 in
09:44 49.6 °F 39.6 °F 30.2 in NE 3.6 mph 11 mph 68 % 0 in
09:49 50 °F 39.7 °F 30.2 in NE 6 mph 9.4 mph 68 % 0 in
09:54 50.4 °F 39.4 °F 30.2 in East 8.1 mph 9.6 mph 66 % 0 in
09:59 50.7 °F 39.7 °F 30.2 in East 6.5 mph 9.6 mph 66 % 0 in
10:04 51.3 °F 39.6 °F 30.2 in ENE 8.5 mph 8.7 mph 64 % 0 in
10:09 51.4 °F 39.2 °F 30.2 in East 6.5 mph 10.1 mph 63 % 0 in
10:14 52 °F 38.8 °F 30.2 in East 7.8 mph 10.1 mph 61 % 0 in
10:19 52.2 °F 38.7 °F 30.2 in East 5.8 mph 8.7 mph 60 % 0 in
10:24 52.5 °F 39 °F 30.2 in NE 5.4 mph 10.1 mph 60 % 0 in
10:29 52.9 °F 38.8 °F 30.2 in East 6 mph 10.1 mph 59 % 0 in
10:34 53.2 °F 38.8 °F 30.2 in East 9.6 mph 10.1 mph 58 % 0 in
10:39 53.8 °F 38.8 °F 30.2 in NE 7.4 mph 9.6 mph 57 % 0 in
10:44 54 °F 39.6 °F 30.2 in NE 10.3 mph 10.3 mph 58 % 0 in
10:50 54 °F 39 °F 30.2 in East 7.2 mph 10.3 mph 57 % 0 in
10:55 54.7 °F 39.6 °F 30.2 in NE 6.5 mph 10.1 mph 57 % 0 in
11:00 54.9 °F 39.6 °F 30.2 in ENE 6.9 mph 10.1 mph 56 % 0 in
11:05 54.9 °F 38.7 °F 30.2 in ENE 8.9 mph 10.3 mph 54 % 0 in
11:10 55.6 °F 39.7 °F 30.2 in ENE 4.3 mph 10.3 mph 55 % 0 in
11:15 55.6 °F 38.8 °F 30.2 in ENE 5.8 mph 8.7 mph 53 % 0 in
11:20 55.8 °F 38.8 °F 30.2 in East 7.2 mph 10.7 mph 53 % 0 in
11:25 56.1 °F 39.4 °F 30.2 in ENE 7.6 mph 10.7 mph 53 % 0 in
11:30 56.1 °F 38.8 °F 30.2 in NE 5.8 mph 10.5 mph 52 % 0 in
11:33 56.5 °F 39.6 °F 30.2 in East 5.6 mph 10.5 mph 53 % 0 in
11:38 56.5 °F 38.7 °F 30.2 in NE 6.3 mph 10.3 mph 51 % 0 in
11:43 56.7 °F 38.8 °F 30.2 in East 7.8 mph 11 mph 51 % 0 in
11:48 56.7 °F 38.3 °F 30.2 in East 8.7 mph 11 mph 50 % 0 in
11:53 57.4 °F 39.4 °F 30.2 in NE 8.5 mph 11 mph 51 % 0 in
11:58 57.6 °F 39.6 °F 30.2 in ENE 10.5 mph 11 mph 51 % 0 in
12:03 57.6 °F 39 °F 30.2 in East 7.8 mph 12.8 mph 50 % 0 in
12:08 57.4 °F 38.8 °F 30.2 in East 10.3 mph 12.8 mph 50 % 0 in
12:13 57.9 °F 39.4 °F 30.2 in NE 10.3 mph 11.4 mph 50 % 0 in
12:18 58.1 °F 39.6 °F 30.2 in ENE 13 mph 13 mph 50 % 0 in
12:23 58.3 °F 39.2 °F 30.2 in NE 8.1 mph 13 mph 49 % 0 in
12:28 58.6 °F 39.6 °F 30.2 in East 8.5 mph 13 mph 49 % 0 in
12:34 58.8 °F 39.7 °F 30.2 in ENE 8.7 mph 10.7 mph 49 % 0 in
12:39 59 °F 39.7 °F 30.2 in East 6 mph 10.5 mph 49 % 0 in
12:44 59.4 °F 40.3 °F 30.2 in NE 4.9 mph 10.5 mph 49 % 0 in
12:49 59.7 °F 40.5 °F 30.2 in East 6.3 mph 10.1 mph 49 % 0 in
12:54 60.1 °F 40.8 °F 30.2 in ENE 6.3 mph 9.6 mph 49 % 0 in
12:55 60.1 °F 40.8 °F 30.2 in East 5.8 mph 9.6 mph 49 % 0 in
13:00 60.1 °F 40.3 °F 30.2 in East 5.6 mph 10.3 mph 48 % 0 in
13:05 60.1 °F 40.3 °F 30.2 in East 11.4 mph 11.4 mph 48 % 0 in
13:10 60.1 °F 40.3 °F 30.2 in NE 7.4 mph 11.4 mph 48 % 0 in
13:15 60.1 °F 40.3 °F 30.2 in NE 7.8 mph 9.8 mph 48 % 0 in
13:20 60.6 °F 40.8 °F 30.2 in NE 9.8 mph 10.1 mph 48 % 0 in
13:25 60.8 °F 40.8 °F 30.2 in ENE 8.5 mph 11 mph 48 % 0 in
13:26 61 °F 41.2 °F 30.2 in NE 6.9 mph 11 mph 48 % 0 in
13:31 60.8 °F 40.5 °F 30.2 in ENE 8.5 mph 11 mph 47 % 0 in
13:36 61.3 °F 41.4 °F 30.2 in ENE 8.5 mph 11 mph 48 % 0 in
13:41 61.5 °F 41.2 °F 30.2 in SE 7.4 mph 10.3 mph 47 % 0 in
13:46 62.1 °F 41.5 °F 30.2 in ESE 10.1 mph 10.5 mph 47 % 0 in
13:51 61.5 °F 41.2 °F 30.2 in ENE 8.7 mph 11 mph 47 % 0 in
13:56 62.1 °F 41.5 °F 30.2 in ENE 4.9 mph 12.1 mph 47 % 0 in
14:01 61.5 °F 41.2 °F 30.2 in NE 7.6 mph 12.1 mph 47 % 0 in
14:06 61 °F 40.5 °F 30.2 in ENE 10.1 mph 11.2 mph 47 % 0 in
14:11 61.5 °F 41 °F 30.2 in NE 8.7 mph 11 mph 47 % 0 in
14:16 61.9 °F 41.4 °F 30.2 in East 8.7 mph 10.7 mph 47 % 0 in
14:21 62.2 °F 41.2 °F 30.2 in NE 7.8 mph 10.7 mph 46 % 0 in
14:26 62.8 °F 41.5 °F 30.2 in ENE 8.5 mph 10.7 mph 46 % 0 in
14:31 63 °F 41.2 °F 30.2 in ENE 7.6 mph 10.1 mph 45 % 0 in
14:36 63.1 °F 42.1 °F 30.2 in ENE 7.8 mph 8.7 mph 46 % 0 in
14:41 63.1 °F 41.5 °F 30.2 in East 9.8 mph 9.8 mph 45 % 0 in
14:46 62.4 °F 40.8 °F 30.2 in East 8.5 mph 10.3 mph 45 % 0 in
14:51 62.8 °F 41 °F 30.2 in East 7.2 mph 12.1 mph 45 % 0 in
14:56 62.1 °F 41 °F 30.2 in NE 8.7 mph 12.1 mph 46 % 0 in
15:01 63 °F 41.2 °F 30.2 in East 8.5 mph 12.1 mph 45 % 0 in
15:06 63 °F 41.9 °F 30.2 in ENE 8.7 mph 9.6 mph 46 % 0 in
15:11 63 °F 41.4 °F 30.2 in East 7.4 mph 10.7 mph 45 % 0 in
15:16 63 °F 41.2 °F 30.2 in ENE 8.7 mph 10.7 mph 45 % 0 in
15:21 63.1 °F 41.5 °F 30.2 in East 7.4 mph 10.5 mph 45 % 0 in
15:24 63.1 °F 40.8 °F 30.2 in East 6 mph 10.5 mph 44 % 0 in
15:29 63 °F 40.8 °F 30.2 in East 5.6 mph 10.7 mph 44 % 0 in
15:34 62.8 °F 40.5 °F 30.2 in NE 5.6 mph 10.7 mph 44 % 0 in
15:39 62.8 °F 40.5 °F 30.2 in East 6.5 mph 8.7 mph 44 % 0 in
15:44 62.2 °F 40.1 °F 30.2 in NE 4.3 mph 8.1 mph 44 % 0 in
15:49 63.7 °F 41.4 °F 30.2 in ESE 5.6 mph 8.1 mph 44 % 0 in
15:54 63.9 °F 40.8 °F 30.1 in ESE 8.7 mph 11 mph 43 % 0 in
15:59 63.9 °F 41 °F 30.1 in NE 5.6 mph 11 mph 43 % 0 in
16:04 64.2 °F 41.4 °F 30.1 in ENE 6 mph 10.7 mph 43 % 0 in
16:09 64.6 °F 41.5 °F 30.2 in ENE 8.5 mph 10.3 mph 43 % 0 in
16:14 64.6 °F 41.5 °F 30.2 in East 8.5 mph 8.9 mph 43 % 0 in
16:19 64.6 °F 41 °F 30.2 in East 7.6 mph 10.3 mph 42 % 0 in
16:24 64.8 °F 41.2 °F 30.1 in ENE 6.5 mph 10.3 mph 42 % 0 in
16:30 64.8 °F 41.2 °F 30.1 in ESE 10.7 mph 10.7 mph 42 % 0 in
16:35 64.9 °F 41.4 °F 30.1 in ENE 3.4 mph 10.7 mph 42 % 0 in
16:40 64.8 °F 40.5 °F 30.2 in East 7.8 mph 10.7 mph 41 % 0 in
16:45 64.6 °F 40.5 °F 30.2 in East 8.1 mph 10.3 mph 41 % 0 in
16:50 64.6 °F 40.5 °F 30.2 in ENE 6 mph 8.9 mph 41 % 0 in
16:55 64.6 °F 39.7 °F 30.2 in NE 5.8 mph 9.6 mph 40 % 0 in
17:00 64.8 °F 39.9 °F 30.2 in East 5.6 mph 9.6 mph 40 % 0 in
17:05 63.9 °F 39 °F 30.2 in ENE 7.4 mph 10.1 mph 40 % 0 in
17:10 64 °F 39.4 °F 30.2 in East 7.4 mph 10.1 mph 40 % 0 in
17:15 63.9 °F 39 °F 30.2 in ENE 8.1 mph 8.7 mph 40 % 0 in
17:20 63.9 °F 39 °F 30.2 in ENE 7.6 mph 9.8 mph 40 % 0 in
17:21 63.9 °F 39 °F 30.2 in NE 5.8 mph 9.8 mph 40 % 0 in
17:27 63.3 °F 38.7 °F 30.2 in East 8.1 mph 10.7 mph 40 % 0 in
17:32 63.7 °F 38.8 °F 30.2 in ENE 6.3 mph 10.7 mph 40 % 0 in
17:37 63.7 °F 38.8 °F 30.2 in East 8.5 mph 8.5 mph 40 % 0 in
17:42 63.3 °F 38.7 °F 30.2 in East 5.6 mph 8.5 mph 40 % 0 in
17:47 63.7 °F 39.4 °F 30.2 in NE 6.3 mph 10.5 mph 41 % 0 in
17:51 63.3 °F 39.4 °F 30.2 in ENE 5.6 mph 10.5 mph 41 % 0 in
17:57 63 °F 38.3 °F 30.2 in ENE 6.5 mph 10.7 mph 40 % 0 in
18:02 63 °F 38.8 °F 30.2 in East 3.6 mph 10.7 mph 41 % 0 in
18:07 62.8 °F 38.7 °F 30.2 in East 8.7 mph 9.6 mph 41 % 0 in
18:12 62.4 °F 38.5 °F 30.2 in ENE 6.5 mph 9.6 mph 41 % 0 in
18:17 62.2 °F 38.3 °F 30.2 in East 7.2 mph 8.5 mph 41 % 0 in
18:22 62.4 °F 38.5 °F 30.2 in East 6.3 mph 10.3 mph 41 % 0 in
18:27 62.2 °F 38.1 °F 30.2 in ENE 7.4 mph 10.3 mph 41 % 0 in
18:32 61.9 °F 37.8 °F 30.2 in ENE 6.3 mph 10.1 mph 41 % 0 in
18:37 61.9 °F 37.8 °F 30.2 in ESE 7.6 mph 10.3 mph 41 % 0 in
18:42 61.5 °F 37.8 °F 30.2 in East 8.1 mph 10.3 mph 41 % 0 in
18:47 61.5 °F 37.6 °F 30.2 in ENE 5.6 mph 9.8 mph 41 % 0 in
18:52 61 °F 37 °F 30.2 in ENE 6.5 mph 8.7 mph 41 % 0 in
18:57 60.4 °F 36.7 °F 30.2 in ENE 5.4 mph 8.7 mph 41 % 0 in
19:02 59.7 °F 37.8 °F 30.2 in ENE 6.3 mph 11 mph 44 % 0 in
19:07 59 °F 38.8 °F 30.2 in NE 6.3 mph 11 mph 47 % 0 in
19:12 58.5 °F 39.4 °F 30.2 in NE 7.8 mph 10.3 mph 49 % 0 in
19:17 57.7 °F 40.6 °F 30.2 in NE 8.5 mph 10.5 mph 53 % 0 in
19:22 57.4 °F 41.4 °F 30.2 in North 10.1 mph 14.5 mph 55 % 0 in
19:27 57 °F 41.5 °F 30.2 in NNE 8.7 mph 14.5 mph 56 % 0 in
19:32 56.7 °F 41.5 °F 30.2 in NE 10.5 mph 13.2 mph 57 % 0 in
19:37 56.3 °F 42.3 °F 30.2 in NE 10.1 mph 12.5 mph 59 % 0 in
19:42 55.9 °F 42.3 °F 30.2 in NE 10.7 mph 12.5 mph 60 % 0 in
19:47 55.8 °F 42.6 °F 30.2 in NE 9.6 mph 11 mph 61 % 0 in
19:52 55.6 °F 42.3 °F 30.1 in NE 8.7 mph 11 mph 61 % 0 in
19:57 55 °F 41.9 °F 30.1 in NE 8.1 mph 11 mph 61 % 0 in
20:02 54.9 °F 42.4 °F 30.1 in NE 5.4 mph 10.5 mph 63 % 0 in
20:07 54.3 °F 42.1 °F 30.1 in NE 6.5 mph 10.5 mph 63 % 0 in
20:12 54 °F 42.1 °F 30.1 in NE 6.3 mph 8.7 mph 64 % 0 in
20:17 54 °F 42.4 °F 30.1 in NE 8.1 mph 9.8 mph 65 % 0 in
20:23 53.8 °F 42.3 °F 30.2 in NNE 8.1 mph 9.8 mph 65 % 0 in
20:28 53.2 °F 42.3 °F 30.2 in NNE 6.5 mph 9.8 mph 66 % 0 in
20:33 53.2 °F 42.1 °F 30.2 in ENE 7.6 mph 8.7 mph 66 % 0 in
20:38 53.1 °F 42.3 °F 30.2 in NE 7.8 mph 10.3 mph 67 % 0 in
20:43 52.9 °F 42.4 °F 30.2 in NNE 7.8 mph 10.5 mph 68 % 0 in
20:48 52.5 °F 42.8 °F 30.2 in NE 8.1 mph 10.5 mph 69 % 0 in
20:53 52.5 °F 42.6 °F 30.2 in NE 7.8 mph 8.7 mph 69 % 0 in
20:58 52.3 °F 42.4 °F 30.2 in NNE 5.8 mph 8.7 mph 69 % 0 in
21:03 52 °F 42.1 °F 30.2 in NNE 6.5 mph 8.7 mph 69 % 0 in
21:08 51.6 °F 41.7 °F 30.2 in NE 6.3 mph 7.4 mph 69 % 0 in
21:13 51.6 °F 42.4 °F 30.2 in NE 8.1 mph 9.6 mph 71 % 0 in
21:18 51.4 °F 42.3 °F 30.2 in NE 7.4 mph 9.6 mph 71 % 0 in
21:23 51.3 °F 42.1 °F 30.2 in ENE 6.5 mph 8.9 mph 71 % 0 in
21:28 51.1 °F 42.1 °F 30.2 in NE 5.8 mph 7.8 mph 71 % 0 in
21:33 50.5 °F 41.7 °F 30.2 in NE 3.1 mph 8.1 mph 72 % 0 in
21:38 50.2 °F 41.5 °F 30.2 in NE 5.6 mph 8.1 mph 72 % 0 in
21:43 50 °F 41.7 °F 30.2 in NNE 3.8 mph 7.6 mph 73 % 0 in
21:48 49.6 °F 41.4 °F 30.2 in North 5.6 mph 7.6 mph 73 % 0 in
21:53 49.1 °F 41.2 °F 30.2 in North 6.3 mph 7.6 mph 74 % 0 in
21:58 49.1 °F 41.5 °F 30.2 in NNW 5.6 mph 7.8 mph 75 % 0 in
22:03 48.9 °F 41.7 °F 30.2 in NNE 5.8 mph 7.8 mph 76 % 0 in
22:08 48.7 °F 41.5 °F 30.2 in NE 6.3 mph 7.8 mph 76 % 0 in
22:13 48.7 °F 41.5 °F 30.2 in NNE 5.4 mph 8.1 mph 76 % 0 in
22:18 48.7 °F 41.9 °F 30.2 in NE 5.8 mph 8.1 mph 77 % 0 in
22:23 48.7 °F 41.9 °F 30.2 in NE 8.1 mph 8.1 mph 77 % 0 in
22:28 48.9 °F 42.4 °F 30.2 in ENE 7.4 mph 8.7 mph 78 % 0 in
22:33 48.9 °F 42.4 °F 30.2 in NE 4.9 mph 8.7 mph 78 % 0 in
22:38 48.7 °F 41.9 °F 30.2 in ENE 6.3 mph 7.8 mph 77 % 0 in
22:43 48.7 °F 41.9 °F 30.2 in ENE 4.7 mph 7.8 mph 77 % 0 in
22:48 48.6 °F 41.7 °F 30.2 in ENE 4.9 mph 7.2 mph 77 % 0 in
22:53 48.4 °F 41.5 °F 30.2 in ENE 4.5 mph 6.5 mph 77 % 0 in
22:58 48.4 °F 41.5 °F 30.2 in NE 4.7 mph 6.5 mph 77 % 0 in
23:03 48.2 °F 41.4 °F 30.2 in NE 5.4 mph 6.3 mph 77 % 0 in
23:08 48 °F 40.8 °F 30.2 in NE 2.9 mph 5.8 mph 76 % 0 in
23:13 47.5 °F 40.3 °F 30.2 in Calm   5.4 mph 76 % 0 in
23:18 47.3 °F 40.3 °F 30.2 in NNE 1.1 mph 3.6 mph 76 % 0 in
23:23 46.9 °F 39.7 °F 30.2 in NE 2.7 mph 3.6 mph 76 % 0 in
23:28 46.8 °F 39.6 °F 30.2 in NNE 3.1 mph 4.7 mph 76 % 0 in
23:33 46.6 °F 39.6 °F 30.2 in NNE 3.4 mph 4.7 mph 76 % 0 in
23:38 46.2 °F 39.6 °F 30.2 in NNE 3.6 mph 5.4 mph 77 % 0 in
23:43 46.2 °F 39.7 °F 30.2 in NE 5.8 mph 6.5 mph 78 % 0 in
23:48 46.2 °F 40.1 °F 30.2 in NE 3.6 mph 6.5 mph 79 % 0 in
23:53 46.2 °F 40.5 °F 30.2 in NNE 6 mph 6.5 mph 80 % 0 in
23:58 46 °F 40.3 °F 30.2 in NE 4.3 mph 6.3 mph 80 % 0 in
Le Gheer Warneton
Courtoisie de Weather Underground - 2.25 mb

Mise a jour : 18/12/2017 23:04:15
Généré par Cumulus 1.9.4 (1099)